sensor_id;sensor_type;location;lat;lon;timestamp;temperature;humidity
11320;DHT22;5715;48.234;14.320;2022-12-07T00:00:33;3.70;99.90
11320;DHT22;5715;48.234;14.320;2022-12-07T00:03:20;3.70;99.90
11320;DHT22;5715;48.234;14.320;2022-12-07T00:06:10;3.70;99.90
11320;DHT22;5715;48.234;14.320;2022-12-07T00:08:59;3.70;99.90
11320;DHT22;5715;48.234;14.320;2022-12-07T00:11:49;3.70;99.90
11320;DHT22;5715;48.234;14.320;2022-12-07T00:14:38;3.70;99.90
11320;DHT22;5715;48.234;14.320;2022-12-07T00:17:25;3.70;99.90
11320;DHT22;5715;48.234;14.320;2022-12-07T00:20:13;3.80;99.90
11320;DHT22;5715;48.234;14.320;2022-12-07T00:23:00;3.80;99.90
11320;DHT22;5715;48.234;14.320;2022-12-07T00:25:48;3.80;99.90
11320;DHT22;5715;48.234;14.320;2022-12-07T00:28:36;3.80;99.90
11320;DHT22;5715;48.234;14.320;2022-12-07T00:31:27;3.80;99.90
11320;DHT22;5715;48.234;14.320;2022-12-07T00:34:19;3.80;99.90
11320;DHT22;5715;48.234;14.320;2022-12-07T00:37:07;3.80;99.90
11320;DHT22;5715;48.234;14.320;2022-12-07T00:39:55;3.80;99.90
11320;DHT22;5715;48.234;14.320;2022-12-07T00:42:42;3.80;99.90
11320;DHT22;5715;48.234;14.320;2022-12-07T00:45:30;3.80;99.90
11320;DHT22;5715;48.234;14.320;2022-12-07T00:48:17;3.80;99.90
11320;DHT22;5715;48.234;14.320;2022-12-07T00:51:06;3.80;99.90
11320;DHT22;5715;48.234;14.320;2022-12-07T00:53:54;3.80;99.90
11320;DHT22;5715;48.234;14.320;2022-12-07T00:56:42;3.80;99.90
11320;DHT22;5715;48.234;14.320;2022-12-07T00:59:29;3.80;99.90
11320;DHT22;5715;48.234;14.320;2022-12-07T01:02:17;3.80;99.90
11320;DHT22;5715;48.234;14.320;2022-12-07T01:05:05;3.80;99.90
11320;DHT22;5715;48.234;14.320;2022-12-07T01:07:53;3.70;99.90
11320;DHT22;5715;48.234;14.320;2022-12-07T01:10:41;3.70;99.90
11320;DHT22;5715;48.234;14.320;2022-12-07T01:13:29;3.70;99.90
11320;DHT22;5715;48.234;14.320;2022-12-07T01:16:17;3.70;99.90
11320;DHT22;5715;48.234;14.320;2022-12-07T01:19:06;3.70;99.90
11320;DHT22;5715;48.234;14.320;2022-12-07T01:21:53;3.70;99.90
11320;DHT22;5715;48.234;14.320;2022-12-07T01:24:41;3.70;99.90
11320;DHT22;5715;48.234;14.320;2022-12-07T01:27:28;3.70;99.90
11320;DHT22;5715;48.234;14.320;2022-12-07T01:30:16;3.70;99.90
11320;DHT22;5715;48.234;14.320;2022-12-07T01:33:03;3.70;99.90
11320;DHT22;5715;48.234;14.320;2022-12-07T01:35:51;3.70;99.90
11320;DHT22;5715;48.234;14.320;2022-12-07T01:38:38;3.70;99.90
11320;DHT22;5715;48.234;14.320;2022-12-07T01:41:31;3.70;99.90
11320;DHT22;5715;48.234;14.320;2022-12-07T01:44:27;3.70;99.90
11320;DHT22;5715;48.234;14.320;2022-12-07T01:47:19;3.70;99.90
11320;DHT22;5715;48.234;14.320;2022-12-07T01:50:07;3.70;99.90
11320;DHT22;5715;48.234;14.320;2022-12-07T01:52:57;3.70;99.90
11320;DHT22;5715;48.234;14.320;2022-12-07T01:55:51;3.70;99.90
11320;DHT22;5715;48.234;14.320;2022-12-07T01:58:40;3.70;99.90
11320;DHT22;5715;48.234;14.320;2022-12-07T02:01:28;3.70;99.90
11320;DHT22;5715;48.234;14.320;2022-12-07T02:04:16;3.70;99.90
11320;DHT22;5715;48.234;14.320;2022-12-07T02:07:05;3.60;99.90
11320;DHT22;5715;48.234;14.320;2022-12-07T02:09:53;3.60;99.90
11320;DHT22;5715;48.234;14.320;2022-12-07T02:12:41;3.60;99.90
11320;DHT22;5715;48.234;14.320;2022-12-07T02:26:05;3.60;99.90
11320;DHT22;5715;48.234;14.320;2022-12-07T02:29:23;3.60;99.90
11320;DHT22;5715;48.234;14.320;2022-12-07T02:35:53;3.60;99.90
11320;DHT22;5715;48.234;14.320;2022-12-07T02:38:58;3.60;99.90
11320;DHT22;5715;48.234;14.320;2022-12-07T02:41:54;3.70;99.90
11320;DHT22;5715;48.234;14.320;2022-12-07T02:44:46;3.60;99.90
11320;DHT22;5715;48.234;14.320;2022-12-07T02:47:36;3.70;99.90
11320;DHT22;5715;48.234;14.320;2022-12-07T02:50:25;3.70;99.90
11320;DHT22;5715;48.234;14.320;2022-12-07T02:53:40;3.60;99.90
11320;DHT22;5715;48.234;14.320;2022-12-07T02:59:50;3.70;99.90
11320;DHT22;5715;48.234;14.320;2022-12-07T03:09:15;3.60;99.90
11320;DHT22;5715;48.234;14.320;2022-12-07T03:12:39;3.60;99.90
11320;DHT22;5715;48.234;14.320;2022-12-07T03:18:42;3.70;99.90
11320;DHT22;5715;48.234;14.320;2022-12-07T03:21:43;3.60;99.90
11320;DHT22;5715;48.234;14.320;2022-12-07T03:24:43;3.60;99.90
11320;DHT22;5715;48.234;14.320;2022-12-07T03:27:41;3.60;99.90
11320;DHT22;5715;48.234;14.320;2022-12-07T03:30:59;3.60;99.90
11320;DHT22;5715;48.234;14.320;2022-12-07T03:37:04;3.60;99.90
11320;DHT22;5715;48.234;14.320;2022-12-07T03:43:01;3.60;99.90
11320;DHT22;5715;48.234;14.320;2022-12-07T03:46:17;3.60;99.90
11320;DHT22;5715;48.234;14.320;2022-12-07T03:58:18;3.60;99.90
11320;DHT22;5715;48.234;14.320;2022-12-07T04:01:07;3.60;99.90
11320;DHT22;5715;48.234;14.320;2022-12-07T04:03:55;3.60;99.90
11320;DHT22;5715;48.234;14.320;2022-12-07T04:06:42;3.60;99.90
11320;DHT22;5715;48.234;14.320;2022-12-07T04:09:30;3.60;99.90
11320;DHT22;5715;48.234;14.320;2022-12-07T04:12:18;3.60;99.90
11320;DHT22;5715;48.234;14.320;2022-12-07T04:15:06;3.60;99.90
11320;DHT22;5715;48.234;14.320;2022-12-07T04:17:54;3.60;99.90
11320;DHT22;5715;48.234;14.320;2022-12-07T04:20:42;3.60;99.90
11320;DHT22;5715;48.234;14.320;2022-12-07T04:23:29;3.60;99.90
11320;DHT22;5715;48.234;14.320;2022-12-07T04:26:17;3.50;99.90
11320;DHT22;5715;48.234;14.320;2022-12-07T04:29:04;3.50;99.90
11320;DHT22;5715;48.234;14.320;2022-12-07T04:31:54;3.50;99.90
11320;DHT22;5715;48.234;14.320;2022-12-07T04:34:41;3.50;99.90
11320;DHT22;5715;48.234;14.320;2022-12-07T04:37:29;3.50;99.90
11320;DHT22;5715;48.234;14.320;2022-12-07T04:40:17;3.40;99.90
11320;DHT22;5715;48.234;14.320;2022-12-07T04:43:04;3.40;99.90
11320;DHT22;5715;48.234;14.320;2022-12-07T04:45:52;3.40;99.90
11320;DHT22;5715;48.234;14.320;2022-12-07T04:48:39;3.40;99.90
11320;DHT22;5715;48.234;14.320;2022-12-07T04:51:28;3.40;99.90
11320;DHT22;5715;48.234;14.320;2022-12-07T04:54:16;3.30;99.90
11320;DHT22;5715;48.234;14.320;2022-12-07T04:57:04;3.30;99.90
11320;DHT22;5715;48.234;14.320;2022-12-07T04:59:52;3.30;99.90
11320;DHT22;5715;48.234;14.320;2022-12-07T05:02:39;3.30;99.90
11320;DHT22;5715;48.234;14.320;2022-12-07T05:05:27;3.30;99.90
11320;DHT22;5715;48.234;14.320;2022-12-07T05:08:14;3.30;99.90
11320;DHT22;5715;48.234;14.320;2022-12-07T05:11:03;3.30;99.90
11320;DHT22;5715;48.234;14.320;2022-12-07T05:13:51;3.30;99.90
11320;DHT22;5715;48.234;14.320;2022-12-07T05:16:40;3.20;99.90
11320;DHT22;5715;48.234;14.320;2022-12-07T05:19:28;3.20;99.90
11320;DHT22;5715;48.234;14.320;2022-12-07T05:22:16;3.20;99.90
11320;DHT22;5715;48.234;14.320;2022-12-07T05:25:03;3.20;99.90
11320;DHT22;5715;48.234;14.320;2022-12-07T05:27:51;3.20;99.90
11320;DHT22;5715;48.234;14.320;2022-12-07T05:30:39;3.20;99.90
11320;DHT22;5715;48.234;14.320;2022-12-07T05:33:26;3.20;99.90
11320;DHT22;5715;48.234;14.320;2022-12-07T05:36:14;3.20;99.90
11320;DHT22;5715;48.234;14.320;2022-12-07T05:39:02;3.20;99.90
11320;DHT22;5715;48.234;14.320;2022-12-07T05:41:50;3.20;99.90
11320;DHT22;5715;48.234;14.320;2022-12-07T05:44:56;3.20;99.90
11320;DHT22;5715;48.234;14.320;2022-12-07T05:47:44;3.20;99.90
11320;DHT22;5715;48.234;14.320;2022-12-07T05:50:31;3.20;99.90
11320;DHT22;5715;48.234;14.320;2022-12-07T05:53:19;3.20;99.90
11320;DHT22;5715;48.234;14.320;2022-12-07T05:56:09;3.10;99.90
11320;DHT22;5715;48.234;14.320;2022-12-07T05:58:57;3.10;99.90
11320;DHT22;5715;48.234;14.320;2022-12-07T06:02:06;3.10;99.90
11320;DHT22;5715;48.234;14.320;2022-12-07T06:04:55;3.10;99.90
11320;DHT22;5715;48.234;14.320;2022-12-07T06:07:43;3.10;99.90
11320;DHT22;5715;48.234;14.320;2022-12-07T06:10:30;3.10;99.90
11320;DHT22;5715;48.234;14.320;2022-12-07T06:13:18;3.10;99.90
11320;DHT22;5715;48.234;14.320;2022-12-07T06:16:06;3.00;99.90
11320;DHT22;5715;48.234;14.320;2022-12-07T06:18:54;3.00;99.90
11320;DHT22;5715;48.234;14.320;2022-12-07T06:21:42;3.00;99.90
11320;DHT22;5715;48.234;14.320;2022-12-07T06:24:32;3.10;99.90
11320;DHT22;5715;48.234;14.320;2022-12-07T06:27:20;3.00;99.90
11320;DHT22;5715;48.234;14.320;2022-12-07T06:30:08;3.00;99.90
11320;DHT22;5715;48.234;14.320;2022-12-07T06:32:56;3.00;99.90
11320;DHT22;5715;48.234;14.320;2022-12-07T06:35:43;3.00;99.90
11320;DHT22;5715;48.234;14.320;2022-12-07T06:38:31;3.00;99.90
11320;DHT22;5715;48.234;14.320;2022-12-07T06:41:18;3.10;99.90
11320;DHT22;5715;48.234;14.320;2022-12-07T06:44:06;3.10;99.90
11320;DHT22;5715;48.234;14.320;2022-12-07T06:46:54;3.10;99.90
11320;DHT22;5715;48.234;14.320;2022-12-07T06:50:02;3.10;99.90
11320;DHT22;5715;48.234;14.320;2022-12-07T06:52:51;3.10;99.90
11320;DHT22;5715;48.234;14.320;2022-12-07T06:55:39;3.10;99.90
11320;DHT22;5715;48.234;14.320;2022-12-07T06:58:27;3.10;99.90
11320;DHT22;5715;48.234;14.320;2022-12-07T07:01:17;3.10;99.90
11320;DHT22;5715;48.234;14.320;2022-12-07T07:04:07;3.10;99.90
11320;DHT22;5715;48.234;14.320;2022-12-07T07:06:54;3.10;99.90
11320;DHT22;5715;48.234;14.320;2022-12-07T07:09:46;3.20;99.90
11320;DHT22;5715;48.234;14.320;2022-12-07T07:12:33;3.20;99.90
11320;DHT22;5715;48.234;14.320;2022-12-07T07:15:21;3.20;99.90
11320;DHT22;5715;48.234;14.320;2022-12-07T07:18:08;3.20;99.90
11320;DHT22;5715;48.234;14.320;2022-12-07T07:20:56;3.20;99.90
11320;DHT22;5715;48.234;14.320;2022-12-07T07:23:44;3.20;99.90
11320;DHT22;5715;48.234;14.320;2022-12-07T07:26:31;3.20;99.90
11320;DHT22;5715;48.234;14.320;2022-12-07T07:29:19;3.30;99.90
11320;DHT22;5715;48.234;14.320;2022-12-07T07:32:06;3.30;99.90
11320;DHT22;5715;48.234;14.320;2022-12-07T07:34:54;3.30;99.90
11320;DHT22;5715;48.234;14.320;2022-12-07T07:37:42;3.40;99.90
11320;DHT22;5715;48.234;14.320;2022-12-07T07:40:29;3.40;99.90
11320;DHT22;5715;48.234;14.320;2022-12-07T07:43:17;3.40;99.90
11320;DHT22;5715;48.234;14.320;2022-12-07T07:46:04;3.50;99.90
11320;DHT22;5715;48.234;14.320;2022-12-07T07:48:52;3.50;99.90
11320;DHT22;5715;48.234;14.320;2022-12-07T07:51:39;3.60;99.90
11320;DHT22;5715;48.234;14.320;2022-12-07T07:54:27;3.60;99.90
11320;DHT22;5715;48.234;14.320;2022-12-07T07:57:16;3.60;99.90
11320;DHT22;5715;48.234;14.320;2022-12-07T08:00:10;3.70;99.90
11320;DHT22;5715;48.234;14.320;2022-12-07T08:02:59;3.70;99.90
11320;DHT22;5715;48.234;14.320;2022-12-07T08:05:47;3.70;99.90
11320;DHT22;5715;48.234;14.320;2022-12-07T08:08:34;3.80;99.90
11320;DHT22;5715;48.234;14.320;2022-12-07T08:11:22;3.80;99.90
11320;DHT22;5715;48.234;14.320;2022-12-07T08:14:10;3.90;99.90
11320;DHT22;5715;48.234;14.320;2022-12-07T08:16:58;3.90;99.90
11320;DHT22;5715;48.234;14.320;2022-12-07T08:19:45;4.00;99.90
11320;DHT22;5715;48.234;14.320;2022-12-07T08:22:33;4.10;99.90
11320;DHT22;5715;48.234;14.320;2022-12-07T08:25:21;4.10;99.90
11320;DHT22;5715;48.234;14.320;2022-12-07T08:28:11;4.20;99.90
11320;DHT22;5715;48.234;14.320;2022-12-07T08:31:00;4.30;99.90
11320;DHT22;5715;48.234;14.320;2022-12-07T08:33:53;4.30;99.90
11320;DHT22;5715;48.234;14.320;2022-12-07T08:36:41;4.30;99.90
11320;DHT22;5715;48.234;14.320;2022-12-07T08:39:28;4.30;99.90
11320;DHT22;5715;48.234;14.320;2022-12-07T08:42:18;4.40;99.90
11320;DHT22;5715;48.234;14.320;2022-12-07T08:45:08;4.40;99.90
11320;DHT22;5715;48.234;14.320;2022-12-07T08:48:04;4.40;99.90
11320;DHT22;5715;48.234;14.320;2022-12-07T08:50:54;4.40;99.90
11320;DHT22;5715;48.234;14.320;2022-12-07T08:53:43;4.50;99.90
11320;DHT22;5715;48.234;14.320;2022-12-07T08:56:31;4.50;99.90
11320;DHT22;5715;48.234;14.320;2022-12-07T08:59:19;4.50;99.90
11320;DHT22;5715;48.234;14.320;2022-12-07T09:02:07;4.60;99.90
11320;DHT22;5715;48.234;14.320;2022-12-07T09:04:55;4.70;99.90
11320;DHT22;5715;48.234;14.320;2022-12-07T09:07:48;4.70;99.90
11320;DHT22;5715;48.234;14.320;2022-12-07T09:10:38;4.70;99.90
11320;DHT22;5715;48.234;14.320;2022-12-07T09:13:26;4.60;99.90
11320;DHT22;5715;48.234;14.320;2022-12-07T09:16:13;4.60;99.90
11320;DHT22;5715;48.234;14.320;2022-12-07T09:19:01;4.60;99.90
11320;DHT22;5715;48.234;14.320;2022-12-07T09:21:49;4.50;99.90
11320;DHT22;5715;48.234;14.320;2022-12-07T09:24:36;4.60;99.90
11320;DHT22;5715;48.234;14.320;2022-12-07T09:27:24;4.70;99.90
11320;DHT22;5715;48.234;14.320;2022-12-07T09:30:12;4.70;99.90
11320;DHT22;5715;48.234;14.320;2022-12-07T09:33:00;4.80;99.90
11320;DHT22;5715;48.234;14.320;2022-12-07T09:35:49;4.90;99.90
11320;DHT22;5715;48.234;14.320;2022-12-07T09:38:37;5.00;99.90
11320;DHT22;5715;48.234;14.320;2022-12-07T09:41:27;5.00;99.90
11320;DHT22;5715;48.234;14.320;2022-12-07T09:44:24;5.00;99.90
11320;DHT22;5715;48.234;14.320;2022-12-07T09:47:13;5.00;99.90
11320;DHT22;5715;48.234;14.320;2022-12-07T09:50:15;5.00;99.90
11320;DHT22;5715;48.234;14.320;2022-12-07T09:53:19;5.00;99.90
11320;DHT22;5715;48.234;14.320;2022-12-07T09:56:13;5.10;99.90
11320;DHT22;5715;48.234;14.320;2022-12-07T09:59:03;5.10;99.90
11320;DHT22;5715;48.234;14.320;2022-12-07T10:01:51;5.00;99.90
11320;DHT22;5715;48.234;14.320;2022-12-07T10:04:47;5.00;99.90
11320;DHT22;5715;48.234;14.320;2022-12-07T10:07:34;4.90;99.90
11320;DHT22;5715;48.234;14.320;2022-12-07T10:10:31;4.90;99.90
11320;DHT22;5715;48.234;14.320;2022-12-07T10:13:39;4.90;99.90
11320;DHT22;5715;48.234;14.320;2022-12-07T10:16:47;5.10;99.90
11320;DHT22;5715;48.234;14.320;2022-12-07T10:19:35;5.20;99.90
11320;DHT22;5715;48.234;14.320;2022-12-07T10:22:22;5.30;99.90
11320;DHT22;5715;48.234;14.320;2022-12-07T10:25:20;5.40;99.90
11320;DHT22;5715;48.234;14.320;2022-12-07T10:28:16;5.50;99.90
11320;DHT22;5715;48.234;14.320;2022-12-07T10:31:19;5.70;99.90
11320;DHT22;5715;48.234;14.320;2022-12-07T10:34:25;5.70;99.90
11320;DHT22;5715;48.234;14.320;2022-12-07T10:43:18;5.60;99.90
11320;DHT22;5715;48.234;14.320;2022-12-07T10:53:05;5.30;99.90
11320;DHT22;5715;48.234;14.320;2022-12-07T11:05:56;4.90;99.90
11320;DHT22;5715;48.234;14.320;2022-12-07T11:10:04;4.90;99.90
11320;DHT22;5715;48.234;14.320;2022-12-07T11:13:32;4.80;99.90
11320;DHT22;5715;48.234;14.320;2022-12-07T11:24:06;4.60;99.90
11320;DHT22;5715;48.234;14.320;2022-12-07T11:30:56;4.40;99.90
11320;DHT22;5715;48.234;14.320;2022-12-07T11:37:31;4.50;99.90
11320;DHT22;5715;48.234;14.320;2022-12-07T11:40:34;4.50;99.90
11320;DHT22;5715;48.234;14.320;2022-12-07T11:43:29;4.50;99.90
11320;DHT22;5715;48.234;14.320;2022-12-07T11:46:28;4.40;99.90
11320;DHT22;5715;48.234;14.320;2022-12-07T11:52:43;4.60;99.90
11320;DHT22;5715;48.234;14.320;2022-12-07T11:55:52;4.80;99.90
11320;DHT22;5715;48.234;14.320;2022-12-07T12:04:54;5.10;99.90
11320;DHT22;5715;48.234;14.320;2022-12-07T12:18:19;5.70;99.90
11320;DHT22;5715;48.234;14.320;2022-12-07T12:21:28;5.70;99.90
11320;DHT22;5715;48.234;14.320;2022-12-07T12:24:25;5.70;99.90
11320;DHT22;5715;48.234;14.320;2022-12-07T12:27:25;5.60;99.90
11320;DHT22;5715;48.234;14.320;2022-12-07T12:30:46;5.60;99.90
11320;DHT22;5715;48.234;14.320;2022-12-07T12:34:04;5.60;99.90
11320;DHT22;5715;48.234;14.320;2022-12-07T12:43:41;5.50;99.90
11320;DHT22;5715;48.234;14.320;2022-12-07T12:46:37;5.40;99.90
11320;DHT22;5715;48.234;14.320;2022-12-07T12:49:39;5.40;99.90
11320;DHT22;5715;48.234;14.320;2022-12-07T12:52:52;5.40;99.90
11320;DHT22;5715;48.234;14.320;2022-12-07T12:58:32;5.40;99.90
11320;DHT22;5715;48.234;14.320;2022-12-07T13:01:40;5.30;99.90
11320;DHT22;5715;48.234;14.320;2022-12-07T13:10:47;5.20;99.90
11320;DHT22;5715;48.234;14.320;2022-12-07T13:13:35;5.10;99.90
11320;DHT22;5715;48.234;14.320;2022-12-07T13:20:39;5.10;99.90
11320;DHT22;5715;48.234;14.320;2022-12-07T13:22:49;5.00;99.90
11320;DHT22;5715;48.234;14.320;2022-12-07T13:26:09;5.00;99.90
11320;DHT22;5715;48.234;14.320;2022-12-07T13:29:16;5.00;99.90
11320;DHT22;5715;48.234;14.320;2022-12-07T13:32:24;4.90;99.90
11320;DHT22;5715;48.234;14.320;2022-12-07T13:35:30;4.90;99.90
11320;DHT22;5715;48.234;14.320;2022-12-07T13:38:34;4.90;99.90
11320;DHT22;5715;48.234;14.320;2022-12-07T13:41:28;4.80;99.90
11320;DHT22;5715;48.234;14.320;2022-12-07T13:44:17;4.80;99.90
11320;DHT22;5715;48.234;14.320;2022-12-07T13:49:57;4.80;99.90
11320;DHT22;5715;48.234;14.320;2022-12-07T13:52:44;4.70;99.90
11320;DHT22;5715;48.234;14.320;2022-12-07T13:55:32;4.70;99.90
11320;DHT22;5715;48.234;14.320;2022-12-07T13:58:20;4.70;99.90
11320;DHT22;5715;48.234;14.320;2022-12-07T14:01:09;4.70;99.90
11320;DHT22;5715;48.234;14.320;2022-12-07T14:04:19;4.60;99.90
11320;DHT22;5715;48.234;14.320;2022-12-07T14:07:25;4.50;99.90
11320;DHT22;5715;48.234;14.320;2022-12-07T14:13:51;4.50;99.90
11320;DHT22;5715;48.234;14.320;2022-12-07T14:16:58;4.40;99.90
11320;DHT22;5715;48.234;14.320;2022-12-07T14:19:50;4.40;99.90
11320;DHT22;5715;48.234;14.320;2022-12-07T14:22:39;4.40;99.90
11320;DHT22;5715;48.234;14.320;2022-12-07T14:25:27;4.40;99.90
11320;DHT22;5715;48.234;14.320;2022-12-07T14:28:29;4.40;99.90
11320;DHT22;5715;48.234;14.320;2022-12-07T14:31:24;4.30;99.90
11320;DHT22;5715;48.234;14.320;2022-12-07T14:34:16;4.30;99.90
11320;DHT22;5715;48.234;14.320;2022-12-07T14:37:09;4.40;99.90
11320;DHT22;5715;48.234;14.320;2022-12-07T14:39:57;4.30;99.90
11320;DHT22;5715;48.234;14.320;2022-12-07T14:42:47;4.30;99.90
11320;DHT22;5715;48.234;14.320;2022-12-07T14:45:38;4.30;99.90
11320;DHT22;5715;48.234;14.320;2022-12-07T14:48:26;4.20;99.90
11320;DHT22;5715;48.234;14.320;2022-12-07T14:51:37;4.20;99.90
11320;DHT22;5715;48.234;14.320;2022-12-07T14:54:47;4.20;99.90
11320;DHT22;5715;48.234;14.320;2022-12-07T14:57:35;4.20;99.90
11320;DHT22;5715;48.234;14.320;2022-12-07T15:00:24;4.10;99.90
11320;DHT22;5715;48.234;14.320;2022-12-07T15:03:13;4.10;99.90
11320;DHT22;5715;48.234;14.320;2022-12-07T15:06:01;4.00;99.90
11320;DHT22;5715;48.234;14.320;2022-12-07T15:08:51;4.00;99.90
11320;DHT22;5715;48.234;14.320;2022-12-07T15:11:38;4.00;99.90
11320;DHT22;5715;48.234;14.320;2022-12-07T15:14:30;3.90;99.90
11320;DHT22;5715;48.234;14.320;2022-12-07T15:17:18;3.90;99.90
11320;DHT22;5715;48.234;14.320;2022-12-07T15:20:18;3.80;99.90
11320;DHT22;5715;48.234;14.320;2022-12-07T15:23:05;3.80;99.90
11320;DHT22;5715;48.234;14.320;2022-12-07T15:25:53;3.70;99.90
11320;DHT22;5715;48.234;14.320;2022-12-07T15:28:41;3.70;99.90
11320;DHT22;5715;48.234;14.320;2022-12-07T15:31:29;3.60;99.90
11320;DHT22;5715;48.234;14.320;2022-12-07T15:34:36;3.60;99.90
11320;DHT22;5715;48.234;14.320;2022-12-07T15:37:26;3.50;99.90
11320;DHT22;5715;48.234;14.320;2022-12-07T15:40:14;3.40;99.90
11320;DHT22;5715;48.234;14.320;2022-12-07T15:43:02;3.40;99.90
11320;DHT22;5715;48.234;14.320;2022-12-07T15:45:51;3.40;99.90
11320;DHT22;5715;48.234;14.320;2022-12-07T15:48:38;3.30;99.90
11320;DHT22;5715;48.234;14.320;2022-12-07T15:51:26;3.30;99.90
11320;DHT22;5715;48.234;14.320;2022-12-07T15:54:21;3.20;99.90
11320;DHT22;5715;48.234;14.320;2022-12-07T15:57:10;3.10;99.90
11320;DHT22;5715;48.234;14.320;2022-12-07T15:59:58;3.10;99.90
11320;DHT22;5715;48.234;14.320;2022-12-07T16:02:46;3.00;99.90
11320;DHT22;5715;48.234;14.320;2022-12-07T16:05:33;3.00;99.90
11320;DHT22;5715;48.234;14.320;2022-12-07T16:08:21;2.90;99.90
11320;DHT22;5715;48.234;14.320;2022-12-07T16:11:09;2.90;99.90
11320;DHT22;5715;48.234;14.320;2022-12-07T16:13:57;2.90;99.90
11320;DHT22;5715;48.234;14.320;2022-12-07T16:16:44;3.00;99.90
11320;DHT22;5715;48.234;14.320;2022-12-07T16:19:33;3.00;99.90
11320;DHT22;5715;48.234;14.320;2022-12-07T16:22:21;3.00;99.90
11320;DHT22;5715;48.234;14.320;2022-12-07T16:25:08;3.00;99.90
11320;DHT22;5715;48.234;14.320;2022-12-07T16:27:56;3.00;99.90
11320;DHT22;5715;48.234;14.320;2022-12-07T16:30:43;3.00;99.90
11320;DHT22;5715;48.234;14.320;2022-12-07T16:33:31;3.00;99.90
11320;DHT22;5715;48.234;14.320;2022-12-07T16:36:19;3.00;99.90
11320;DHT22;5715;48.234;14.320;2022-12-07T16:39:29;3.00;99.90
11320;DHT22;5715;48.234;14.320;2022-12-07T16:42:16;3.10;99.90
11320;DHT22;5715;48.234;14.320;2022-12-07T16:45:04;3.00;99.90
11320;DHT22;5715;48.234;14.320;2022-12-07T16:47:52;3.00;99.90
11320;DHT22;5715;48.234;14.320;2022-12-07T16:50:40;3.00;99.90
11320;DHT22;5715;48.234;14.320;2022-12-07T16:53:38;3.00;99.90
11320;DHT22;5715;48.234;14.320;2022-12-07T16:56:26;3.00;99.90
11320;DHT22;5715;48.234;14.320;2022-12-07T16:59:16;3.00;99.90
11320;DHT22;5715;48.234;14.320;2022-12-07T17:02:03;3.00;99.90
11320;DHT22;5715;48.234;14.320;2022-12-07T17:04:52;2.90;99.90
11320;DHT22;5715;48.234;14.320;2022-12-07T17:07:39;2.90;99.90
11320;DHT22;5715;48.234;14.320;2022-12-07T17:10:27;2.90;99.90
11320;DHT22;5715;48.234;14.320;2022-12-07T17:13:14;2.90;99.90
11320;DHT22;5715;48.234;14.320;2022-12-07T17:16:21;3.00;99.90
11320;DHT22;5715;48.234;14.320;2022-12-07T17:19:11;3.00;99.90
11320;DHT22;5715;48.234;14.320;2022-12-07T17:22:00;3.00;99.90
11320;DHT22;5715;48.234;14.320;2022-12-07T17:24:48;3.10;99.90
11320;DHT22;5715;48.234;14.320;2022-12-07T17:27:35;3.10;99.90
11320;DHT22;5715;48.234;14.320;2022-12-07T17:30:23;3.10;99.90
11320;DHT22;5715;48.234;14.320;2022-12-07T17:33:11;3.10;99.90
11320;DHT22;5715;48.234;14.320;2022-12-07T17:36:00;3.10;99.90
11320;DHT22;5715;48.234;14.320;2022-12-07T17:38:48;3.10;99.90
11320;DHT22;5715;48.234;14.320;2022-12-07T17:41:37;3.10;99.90
11320;DHT22;5715;48.234;14.320;2022-12-07T17:44:43;3.10;99.90
11320;DHT22;5715;48.234;14.320;2022-12-07T17:47:30;3.10;99.90
11320;DHT22;5715;48.234;14.320;2022-12-07T17:50:18;3.10;99.90
11320;DHT22;5715;48.234;14.320;2022-12-07T17:53:26;3.10;99.90
11320;DHT22;5715;48.234;14.320;2022-12-07T17:56:13;3.10;99.90
11320;DHT22;5715;48.234;14.320;2022-12-07T17:59:16;3.00;99.90
11320;DHT22;5715;48.234;14.320;2022-12-07T18:02:04;3.00;99.90
11320;DHT22;5715;48.234;14.320;2022-12-07T18:04:51;3.10;99.90
11320;DHT22;5715;48.234;14.320;2022-12-07T18:07:39;2.90;99.90
11320;DHT22;5715;48.234;14.320;2022-12-07T18:10:26;2.90;99.90
11320;DHT22;5715;48.234;14.320;2022-12-07T18:13:14;2.80;99.90
11320;DHT22;5715;48.234;14.320;2022-12-07T18:16:22;2.80;99.90
11320;DHT22;5715;48.234;14.320;2022-12-07T18:19:13;2.80;99.90
11320;DHT22;5715;48.234;14.320;2022-12-07T18:22:03;2.80;99.90
11320;DHT22;5715;48.234;14.320;2022-12-07T18:24:52;2.70;99.90
11320;DHT22;5715;48.234;14.320;2022-12-07T18:27:39;2.70;99.90
11320;DHT22;5715;48.234;14.320;2022-12-07T18:30:27;2.70;99.90
11320;DHT22;5715;48.234;14.320;2022-12-07T18:33:35;2.70;99.90
11320;DHT22;5715;48.234;14.320;2022-12-07T18:36:23;2.70;99.90
11320;DHT22;5715;48.234;14.320;2022-12-07T18:39:11;2.70;99.90
11320;DHT22;5715;48.234;14.320;2022-12-07T18:42:00;2.70;99.90
11320;DHT22;5715;48.234;14.320;2022-12-07T18:44:47;2.70;99.90
11320;DHT22;5715;48.234;14.320;2022-12-07T18:47:35;2.70;99.90
11320;DHT22;5715;48.234;14.320;2022-12-07T18:50:22;2.70;99.90
11320;DHT22;5715;48.234;14.320;2022-12-07T18:53:10;2.70;99.90
11320;DHT22;5715;48.234;14.320;2022-12-07T18:56:05;2.70;99.90
11320;DHT22;5715;48.234;14.320;2022-12-07T18:58:57;2.70;99.90
11320;DHT22;5715;48.234;14.320;2022-12-07T19:02:04;2.70;99.90
11320;DHT22;5715;48.234;14.320;2022-12-07T19:04:52;2.70;99.90
11320;DHT22;5715;48.234;14.320;2022-12-07T19:07:39;2.70;99.90
11320;DHT22;5715;48.234;14.320;2022-12-07T19:10:27;2.70;99.90
11320;DHT22;5715;48.234;14.320;2022-12-07T19:13:14;2.70;99.90
11320;DHT22;5715;48.234;14.320;2022-12-07T19:16:06;2.60;99.90
11320;DHT22;5715;48.234;14.320;2022-12-07T19:18:53;2.60;99.90
11320;DHT22;5715;48.234;14.320;2022-12-07T19:21:41;2.60;99.90
11320;DHT22;5715;48.234;14.320;2022-12-07T19:24:30;2.60;99.90
11320;DHT22;5715;48.234;14.320;2022-12-07T19:27:19;2.60;99.90
11320;DHT22;5715;48.234;14.320;2022-12-07T19:30:07;2.60;99.90
11320;DHT22;5715;48.234;14.320;2022-12-07T19:32:58;2.60;99.90
11320;DHT22;5715;48.234;14.320;2022-12-07T19:35:46;2.70;99.90
11320;DHT22;5715;48.234;14.320;2022-12-07T19:38:34;2.70;99.90
11320;DHT22;5715;48.234;14.320;2022-12-07T19:41:21;2.70;99.90
11320;DHT22;5715;48.234;14.320;2022-12-07T19:44:23;2.70;99.90
11320;DHT22;5715;48.234;14.320;2022-12-07T19:47:14;2.70;99.90
11320;DHT22;5715;48.234;14.320;2022-12-07T19:50:03;2.70;99.90
11320;DHT22;5715;48.234;14.320;2022-12-07T19:52:51;2.70;99.90
11320;DHT22;5715;48.234;14.320;2022-12-07T19:55:39;2.70;99.90
11320;DHT22;5715;48.234;14.320;2022-12-07T19:58:28;2.70;99.90
11320;DHT22;5715;48.234;14.320;2022-12-07T20:01:15;2.70;99.90
11320;DHT22;5715;48.234;14.320;2022-12-07T20:04:05;2.70;99.90
11320;DHT22;5715;48.234;14.320;2022-12-07T20:06:56;2.70;99.90
11320;DHT22;5715;48.234;14.320;2022-12-07T20:09:45;2.70;99.90
11320;DHT22;5715;48.234;14.320;2022-12-07T20:12:33;2.70;99.90
11320;DHT22;5715;48.234;14.320;2022-12-07T20:15:54;2.70;99.90
11320;DHT22;5715;48.234;14.320;2022-12-07T20:19:02;2.70;99.90
11320;DHT22;5715;48.234;14.320;2022-12-07T20:21:50;2.70;99.90
11320;DHT22;5715;48.234;14.320;2022-12-07T20:24:38;2.70;99.90
11320;DHT22;5715;48.234;14.320;2022-12-07T20:27:25;2.70;99.90